Terminal Aerodrome Forecast
Issued by NWS

Home | Current Version | Previous Version | Text Only | Print | Product List | Glossary On
Versions: 1 2 3 4 5 6 7 8 9 10 11 12 13 14 15 16 17 18
000
FTUS44 KSJT 162300
TAFSOA
TAF
KSOA 162335Z 1700/1724 VRB04KT P6SM VCSH SCT060 SCT120
     FM170200 VRB04KT P6SM SCT100
     FM171100 VRB04KT P6SM BKN015
     FM171500 VRB06KT P6SM SCT035 SCT120=

USA.gov is the U.S. government's official web portal to all federal, state and local government web resources and services.